Flight Track Log - Related Links

Times and Time Zones

All times are in EDT time to prevent confusion due to time zone crossing. See the N244A flight status page for this flight to view local times or setup timezone preferences in your user account.

Time Position Orientation Groundspeed Altitude Reporting Facility
EDT Latitude Longitude Course Direction KTS MPH feet Rate Location/Type
Wed 04:07:28 PM 26.2847 -81.6806 21° North 247 284 5,000  Level Miami Center
Wed 04:08:28 PM 26.3700 -81.6956 351° North 277 319 8,300 3,100 Climbing Miami Center
Wed 04:09:28 PM 26.4611 -81.7156 349° North 316 364 11,200 2,850 Climbing Miami Center
Wed 04:10:28 PM 26.5564 -81.7381 348° North 340 391 14,000 2,800 Climbing Miami Center
Wed 04:11:00 PM 26.5837 -81.2802 46° Northeast  Level FlightAware Approximate
Wed 04:11:28 PM 26.6567 -81.7353 North 350 403 16,800  Level Miami Center
Wed 04:12:28 PM 26.7558 -81.7092 13° North 354 407 19,000 2,200 Climbing Miami Center
Wed 04:13:28 PM 26.8544 -81.6878 11° North 354 407 21,200 2,150 Climbing Miami Center
Wed 04:14:28 PM 26.9575 -81.6686 North 354 407 23,300 1,800 Climbing Miami Center
Wed 04:15:28 PM 27.0606 -81.6472 10° North 364 419 24,800 1,300 Climbing Miami Center
Wed 04:16:28 PM 27.1678 -81.6236 11° North 380 437 25,900 1,250 Climbing Miami Center
Wed 04:17:28 PM 27.2767 -81.6117 North 386 444 27,300 1,850 Climbing Miami Center
Wed 04:18:28 PM 27.3639 -81.5639 26° Northeast 380 437 29,600 1,850 Climbing Miami Center
Wed 04:19:28 PM 27.4694 -81.5239 19° North 366 421 31,000 850 Climbing Miami Center
Wed 04:20:28 PM 27.5781 -81.5236 360° North 369 425 31,300 700 Climbing Miami Center
Wed 04:21:28 PM 27.6908 -81.5189 North 390 449 32,400 1,100 Climbing Miami Center
Wed 04:22:28 PM 27.7892 -81.5086 North 395 455 33,500 800 Climbing Miami Center
Wed 04:23:28 PM 27.9128 -81.4997 North 400 460 34,000 650 Climbing Miami Center
Wed 04:24:28 PM 28.0272 -81.5044 358° North 406 467 34,800 700 Climbing Miami Center
Wed 04:25:28 PM 28.1275 -81.5061 359° North 406 467 35,400 650 Climbing Miami Center
Wed 04:26:28 PM 28.2422 -81.5061 360° North 406 467 36,100 600 Climbing Miami Center
Wed 04:27:28 PM 28.3589 -81.5064 360° North 406 467 36,600 375 Climbing Miami Center
Wed 04:28:52 PM 28.5203 -81.5081 359° North 410 472 37,000 167 Climbing Jacksonville Center
Wed 04:29:52 PM 28.6392 -81.5064 North 415 478 37,000  Level Jacksonville Center
Wed 04:30:52 PM 28.7622 -81.5072 360° North 426 490 37,000  Level Jacksonville Center
Wed 04:31:52 PM 28.8853 -81.5078 360° North 431 496 37,000  Level Jacksonville Center
Wed 04:32:52 PM 29.0106 -81.5083 360° North 441 507 37,000  Level Jacksonville Center
Wed 04:33:52 PM 29.1317 -81.5089 360° North 441 507 37,000  Level Jacksonville Center
Wed 04:34:52 PM 29.2656 -81.5286 353° North 436 502 37,000  Level Jacksonville Center
Wed 04:35:52 PM 29.3908 -81.5483 352° North 441 507 37,000  Level Jacksonville Center
Wed 04:36:52 PM 29.5144 -81.5656 353° North 447 514 37,000  Level Jacksonville Center
Wed 04:37:52 PM 29.6375 -81.5808 354° North 447 514 37,000  Level Jacksonville Center
Wed 04:38:52 PM 29.7631 -81.5983 353° North 447 514 37,000  Level Jacksonville Center
Wed 04:39:52 PM 29.8864 -81.6133 354° North 447 514 37,000  Level Jacksonville Center
Wed 04:40:52 PM 30.0014 -81.6286 353° North 447 514 37,000  Level Jacksonville Center
Wed 04:41:52 PM 30.1247 -81.6461 353° North 447 514 37,000  Level Jacksonville Center
Wed 04:42:52 PM 30.2522 -81.6614 354° North 447 514 37,000  Level Jacksonville Center
Wed 04:43:52 PM 30.3819 -81.6789 353° North 457 526 37,000  Level Jacksonville Center
Wed 04:44:52 PM 30.5114 -81.6967 353° North 463 533 37,000  Level Jacksonville Center
Wed 04:45:52 PM 30.6369 -81.7192 351° North 463 533 37,000  Level Jacksonville Center
Wed 04:46:52 PM 30.7644 -81.7369 353° North 463 533 37,000  Level Jacksonville Center
Wed 04:47:52 PM 30.8900 -81.7572 352° North 463 533 37,000  Level Jacksonville Center
Wed 04:48:52 PM 31.0175 -81.7728 354° North 463 533 37,000  Level Jacksonville Center
Wed 04:49:52 PM 31.1428 -81.7906 353° North 463 533 37,000  Level Jacksonville Center
Wed 04:50:52 PM 31.2744 -81.8108 353° North 463 533 37,000  Level Jacksonville Center
Wed 04:51:52 PM 31.3978 -81.8242 355° North 448 516 37,000  Level Jacksonville Center
Wed 04:52:52 PM 31.5400 -81.8469 352° North 448 516 37,000  Level Jacksonville Center
Wed 04:53:52 PM 31.6656 -81.8672 352° North 455 524 37,000  Level Jacksonville Center
Wed 04:54:52 PM 31.7783 -81.8808 354° North 460 529 37,000  Level Jacksonville Center
Wed 04:55:52 PM 31.9164 -81.9039 352° North 460 529 37,000  Level Jacksonville Center
Wed 04:57:42 PM 32.1292 -81.9297 354° North 463 533 37,000  Level Atlanta Center
Wed 04:58:42 PM 32.2569 -81.9486 353° North 458 527 37,000  Level Atlanta Center
Wed 04:59:42 PM 32.3806 -81.9728 351° North 453 521 37,000  Level Atlanta Center
Wed 05:00:42 PM 32.5206 -81.9917 354° North 447 514 37,000  Level Atlanta Center
Wed 05:01:42 PM 32.6483 -82.0061 355° North 453 521 37,000 -50 Level Atlanta Center
Wed 05:02:42 PM 32.7739 -82.0278 352° North 453 521 36,900 -650 Descending Atlanta Center
Wed 05:03:42 PM 32.9036 -82.0447 354° North 453 521 35,700 -950 Descending Atlanta Center
Wed 05:04:42 PM 33.0353 -82.0639 353° North 471 542 35,000 -550 Descending Atlanta Center
Wed 05:05:42 PM 33.1692 -82.0833 353° North 471 542 34,600 -750 Descending Atlanta Center
Wed 05:06:42 PM 33.2967 -82.1003 354° North 471 542 33,500 -1,400 Descending Atlanta Center
Wed 05:07:42 PM 33.4264 -82.1197 353° North 466 536 31,800 -1,650 Descending Atlanta Center
Wed 05:08:42 PM 33.5561 -82.1394 353° North 466 536 30,200 -1,400 Descending Atlanta Center
Wed 05:09:42 PM 33.6881 -82.1564 354° North 466 536 29,000 -1,200 Descending Atlanta Center
Wed 05:10:42 PM 33.8217 -82.1608 358° North 466 536 27,800 -1,650 Descending Atlanta Center
Wed 05:11:42 PM 33.9447 -82.1583 North 477 549 25,700 -1,900 Descending Atlanta Center
Wed 05:12:42 PM 34.0844 -82.1553 North 487 560 24,000 -1,500 Descending Atlanta Center
Wed 05:13:42 PM 34.2181 -82.1572 359° North 487 560 22,700 -1,400 Descending Atlanta Center
Wed 05:14:42 PM 34.3414 -82.1569 360° North 464 534 21,200 -1,800 Descending Atlanta Center
Wed 05:15:42 PM 34.4625 -82.1694 355° North 447 514 19,100 -2,250 Descending Atlanta Center
Wed 05:16:42 PM 34.5833 -82.1567 North 431 496 16,700 -2,400 Descending Atlanta Center
Wed 05:17:42 PM 34.6956 -82.1289 12° North 424 488 14,300 -2,550 Descending Atlanta Center
Wed 05:18:42 PM 34.8058 -82.1061 10° North 409 471 11,600 -2,400 Descending Atlanta Center
Wed 05:19:42 PM 34.9017 -82.0911 North 378 435 9,500 -2,550 Descending Atlanta Center
Wed 05:20:42 PM 34.9889 -82.0614 16° North 331 381 6,500 -1,850 Descending Atlanta Center
Wed 05:21:42 PM 35.0569 -82.0139 30° Northeast 288 331 5,800 -1,000 Descending Atlanta Center
Wed 05:22:42 PM 35.1128 -81.9922 18° North 232 267 4,500 -1,450 Descending Atlanta Center
Wed 05:23:42 PM 35.1097 -82.0533 267° West 113 130 2,900 -900 Descending Atlanta Center
Wed 05:24:42 PM 35.0747 -82.0897 220° Southwest 151 174 2,700 -200 Descending Atlanta Center
Wed 05:26:00 PM 34.9463 -82.1824 231° Southwest  Level Estimated
Wed 05:33:00 PM 34.8957 -82.2189 231° Southwest  Level Estimated
Wed 05:34:00 PM 34.8957 -82.2189 231° Southwest  Level Estimated
Wed 05:35:00 PM 34.8957 -82.2189 231° Southwest  Level Estimated
Wed 05:36:00 PM 34.8957 -82.2189 231° Southwest  Level Estimated
Wed 05:37:00 PM 34.8957 -82.2189 231° Southwest  Level Estimated

Login

Don't have an account? Register now (free) for customized features, flight alerts, and more!